• Join FlightAware (Why Join?)
  • Login
  • US Flag 
03:41AM EDT


 

Airport Tracker/Info


-or-


 

Live Flight TrackerFlight Track Log ✈ ASQ5941 ✈ 07-Nov-2013 ✈ KORD - KAVP

Flight Track Log - Related Links

Times and Time Zones

All times are in EST time to prevent confusion due to time zone crossing. See the ASQ5941 flight status page for this flight to view local times or setup timezone preferences in your user account.

Time Position Orientation Groundspeed Altitude Reporting Facility
EST Latitude Longitude Course Direction KTS MPH feet Rate Location/Type
03:01PM 42.0000 -87.9333 75° East 161 185 1,800  Level Chicago TRACON
03:02PM 42.0500 -87.9167 14° North 225 259 3,600 1,320 Climbing Chicago TRACON
03:04PM 42.1317 -87.8069 45° Northeast 266 306 5,300 1,500 Climbing Chicago Center
03:05PM 42.1739 -87.7244 55° Northeast 282 325 7,700 1,980 Climbing Chicago Center
03:06PM 41.9790 -87.0776 85° East  Level Estimated
03:06PM 42.1650 -87.6167 96° East 291 335 9,500  Level Chicago Center
03:07PM 42.0079 -86.9281 75° East  Level FlightAware Approximate
03:07PM 42.1544 -87.4989 97° East 312 359 11,700  Level Chicago Center
03:08PM 42.1428 -87.3808 98° East 317 365 13,800 1,800 Climbing Chicago Center
03:09PM 42.1292 -87.2328 97° East 330 380 15,400 1,020 Climbing Chicago Center
03:10PM 42.1153 -87.0933 98° East 368 423 16,000 900 Climbing Chicago Center
03:11PM 42.1153 -86.9419 90° East 401 461 17,300 1,140 Climbing Chicago Center
03:12PM 42.1217 -86.7906 87° East 405 466 18,400 1,200 Climbing Chicago Center
03:13PM 42.1283 -86.6156 87° East 410 472 19,900 1,200 Climbing Chicago Center
03:14PM 42.1336 -86.4583 87° East 417 480 21,000 960 Climbing Chicago Center
03:15PM 42.1378 -86.2975 88° East 427 491 21,900 900 Climbing Chicago Center
03:16PM 42.1428 -86.1339 88° East 435 501 22,900 960 Climbing Chicago Center
03:17PM 42.1419 -85.9508 90° East 436 502 24,000 960 Climbing Chicago Center
03:18PM 42.1408 -85.7856 90° East 443 510 25,000 960 Climbing Chicago Center
03:19PM 42.1394 -85.6206 91° East 443 510 26,000 960 Climbing Chicago Center
03:20PM 42.1375 -85.4544 91° East 446 513 27,000 900 Climbing Chicago Center
03:21PM 42.1342 -85.2883 91° East 446 513 27,900 960 Climbing Chicago Center
03:22PM 42.1350 -85.0861 90° East 453 521 29,100 1,020 Climbing Chicago Center
03:23PM 42.1325 -84.9181 91° East 449 517 30,100 900 Climbing Chicago Center
03:24PM 42.1311 -84.7481 91° East 455 524 31,000 900 Climbing Chicago Center
03:26PM 42.1297 -84.5756 91° East 462 532 32,000 960 Climbing Chicago Center
03:27PM 42.1283 -84.4006 91° East 468 539 33,000 960 Climbing Chicago Center
03:27PM 42.1261 -84.2467 91° East 469 540 33,800 960 Climbing Cleveland Center
03:28PM 42.1231 -84.0733 91° East 467 537 34,800 540 Climbing Cleveland Center
03:29PM 42.1206 -83.8983 91° East 469 540 35,000 60 Climbing Cleveland Center
03:30PM 42.1161 -83.6786 91° East 494 568 35,000  Level Cleveland Center
03:31PM 42.1128 -83.4867 91° East 510 587 35,000  Level Cleveland Center
03:33PM 42.1083 -83.2889 92° East 522 601 35,000  Level Cleveland Center
03:34PM 42.1047 -83.1056 91° East 529 609 35,000  Level Cleveland Center
03:35PM 42.0986 -82.8725 92° East 524 603 35,000  Level Cleveland Center
03:36PM 42.0933 -82.6789 92° East 521 600 35,000  Level Cleveland Center
03:37PM 42.0881 -82.4850 92° East 521 600 35,000  Level Cleveland Center
03:38PM 42.0825 -82.2889 92° East 527 606 35,000  Level Cleveland Center
03:39PM 42.0750 -82.0639 92° East 532 612 35,000  Level Cleveland Center
03:40PM 42.0683 -81.8597 92° East 538 619 35,000  Level Cleveland Center
03:41PM 42.0619 -81.6553 92° East 539 620 35,000  Level Cleveland Center
03:42PM 42.0542 -81.4536 93° East 535 616 35,000  Level Cleveland Center
03:43PM 42.0475 -81.2508 92° East 534 615 35,000  Level Cleveland Center
03:44PM 42.0392 -81.0478 93° East 536 617 35,000  Level Cleveland Center
03:45PM 42.0308 -80.8456 93° East 536 617 35,000  Level Cleveland Center
03:46PM 42.0219 -80.6411 93° East 542 624 35,000  Level Cleveland Center
03:47PM 42.0111 -80.3983 93° East 550 633 35,000  Level Cleveland Center
03:48PM 42.0017 -80.1919 93° East 549 632 35,000  Level Cleveland Center
03:49PM 41.9928 -79.9881 93° East 544 626 35,000  Level Cleveland Center
03:50PM 41.9814 -79.7850 94° East 546 628 35,000  Level Cleveland Center
03:51PM 41.9708 -79.5828 94° East 544 626 35,000  Level Cleveland Center
03:52PM 41.9594 -79.3825 94° East 543 625 35,000  Level Cleveland Center
03:53PM 41.9464 -79.1419 94° East 538 619 35,000 -420 Level Cleveland Center
03:54PM 41.9775 -78.9417 78° East 552 635 34,200 -840 Descending Cleveland Center
03:55PM 42.0086 -78.7414 78° East 550 633 33,300 -900 Descending Cleveland Center
03:56PM 41.9894 -78.5503 98° East 523 602 32,400 -1,380 Descending Cleveland Center
03:57PM 41.9553 -78.3586 103° East 525 604 30,500 -2,280 Descending Cleveland Center
03:58PM 41.9208 -78.1661 103° East 521 600 27,700 -2,940 Descending Cleveland Center
03:59PM 41.8825 -77.9497 103° East 513 590 24,400 -2,280 Descending Cleveland Center
04:00PM 41.8444 -77.7739 106° East 497 572 23,000 -720 Descending Cleveland Center
04:01PM 41.7997 -77.6044 109° East 492 566 23,000  Level New York Center
04:02PM 41.7550 -77.4358 110° East 486 559 23,000 -600 Level New York Center
04:03PM 41.7133 -77.2872 111° Southeast 480 552 21,900 -6,420 Descending New York Center
04:04PM 41.6700 -77.1275 110° East 469 540 10,000 -2,580 Descending New York Center
04:05PM 41.6322 -76.9767 108° East 445 512 16,800 2,100 Climbing New York Center
04:06PM 41.6131 -76.8194 99° East 431 496 14,200 -2,880 Descending New York Center
04:07PM 41.5989 -76.6461 96° East 423 487 11,200 -2,100 Descending New York Center
04:08PM 41.5869 -76.5064 96° East 407 468 10,000 -840 Descending New York Center
04:09PM 41.5775 -76.4003 97° East 347 399 9,600 -540 Descending New York Center
04:10PM 41.5661 -76.2856 98° East 319 367 9,000 -1,140 Descending New York Center
04:11PM 41.5553 -76.1628 97° East 307 353 7,400 -1,440 Descending New York Center
04:12PM 41.5025 -76.0864 133° Southeast 277 319 6,100 -1,140 Descending New York Center
04:13PM 41.4386 -76.0233 143° Southeast 277 319 5,200 -900 Descending New York Center
04:14PM 41.3744 -75.9658 146° Southeast 284 327 4,300 -600 Descending New York Center
04:15PM 41.3103 -75.9083 146° Southeast 278 320 4,000 -300 Descending New York Center
04:16PM 41.2647 -75.8525 137° Southeast 254 292 3,800 -600 Descending New York Center
04:17PM 41.2608 -75.7969 95° East 175 201 2,900 -900 Descending New York Center
04:18PM 41.2872 -75.7686 39° Northeast 115 132 2,100 -840 Descending New York Center
04:19PM 41.3175 -75.7403 35° Northeast 110 127 1,300 -480 Descending New York Center
04:20PM 41.3333 -75.7083 57° Northeast 115 132 1,200 -120 Descending New York Center